createdAt,value
2022-08-06T00:01:57.253Z,48.45
2022-08-06T00:04:29.146Z,49.10
2022-08-06T00:10:05.744Z,48.92
2022-08-06T00:12:41.630Z,48.58
2022-08-06T00:16:05.844Z,49.20
2022-08-06T00:18:18.305Z,49.19
2022-08-06T00:20:50.657Z,48.77
2022-08-06T00:23:24.887Z,48.79
2022-08-06T00:26:03.835Z,49.08
2022-08-06T00:28:45.744Z,49.22
2022-08-06T00:31:24.155Z,48.75
2022-08-06T00:34:05.509Z,49.29
2022-08-06T00:36:41.812Z,48.96
2022-08-06T00:39:21.513Z,48.74
2022-08-06T00:41:54.328Z,49.39
2022-08-06T00:44:31.191Z,49.31
2022-08-06T00:47:11.791Z,49.41
2022-08-06T00:50:02.865Z,49.46
2022-08-06T00:52:41.774Z,48.88
2022-08-06T00:55:31.989Z,49.34
2022-08-06T00:58:13.160Z,49.20
2022-08-06T01:00:51.893Z,49.60
2022-08-06T01:03:41.255Z,49.18
2022-08-06T01:06:55.208Z,49.21
2022-08-06T01:09:07.540Z,49.65
2022-08-06T01:11:40.512Z,49.60
2022-08-06T01:14:38.525Z,49.55
2022-08-06T01:17:24.506Z,49.32
2022-08-06T01:21:58.873Z,49.29
2022-08-06T01:23:40.971Z,49.74
2022-08-06T01:26:39.797Z,49.23
2022-08-06T01:29:36.444Z,49.47
2022-08-06T01:32:32.585Z,49.72
2022-08-06T01:35:47.095Z,49.79
2022-08-06T01:38:23.307Z,49.89
2022-08-06T01:41:03.717Z,49.70
2022-08-06T01:44:07.040Z,49.44
2022-08-06T01:46:53.554Z,49.23
2022-08-06T01:50:00.493Z,49.49
2022-08-06T01:52:29.256Z,49.48
2022-08-06T01:55:09.852Z,49.40
2022-08-06T01:58:08.098Z,49.88
2022-08-06T02:01:01.150Z,49.59
2022-08-06T02:03:53.194Z,49.88
2022-08-06T02:06:40.601Z,50.08
2022-08-06T02:09:37.805Z,49.85
2022-08-06T02:12:18.584Z,49.79
2022-08-06T02:14:56.709Z,49.40
2022-08-06T02:18:04.569Z,50.11
2022-08-06T02:20:52.787Z,49.57
2022-08-06T02:23:34.709Z,49.73
2022-08-06T02:26:13.348Z,50.15
2022-08-06T02:28:53.068Z,50.08
2022-08-06T02:31:47.522Z,49.64
2022-08-06T02:34:31.028Z,49.61
2022-08-06T02:38:02.146Z,50.25
2022-08-06T02:40:27.805Z,50.35
2022-08-06T02:43:20.394Z,49.80
2022-08-06T02:46:02.062Z,49.86
2022-08-06T02:48:50.813Z,50.45
2022-08-06T02:52:12.563Z,49.87
2022-08-06T02:54:53.840Z,49.94
2022-08-06T02:57:51.546Z,49.82
2022-08-06T03:00:32.866Z,50.25
2022-08-06T03:03:16.092Z,50.06
2022-08-06T03:05:59.459Z,50.57
2022-08-06T03:08:36.271Z,50.66
2022-08-06T03:11:26.833Z,50.50
2022-08-06T03:14:13.118Z,50.04
2022-08-06T03:20:01.750Z,50.41
2022-08-06T03:22:52.254Z,50.31
2022-08-06T03:25:31.125Z,50.71
2022-08-06T03:28:12.150Z,50.17
2022-08-06T03:31:00.607Z,50.21
2022-08-06T03:33:53.129Z,50.30
2022-08-06T03:36:31.917Z,50.25
2022-08-06T03:39:09.785Z,50.89
2022-08-06T03:42:07.745Z,50.35
2022-08-06T03:44:42.115Z,51.11
2022-08-06T03:47:30.696Z,50.76
2022-08-06T03:50:08.915Z,50.59
2022-08-06T03:52:46.715Z,50.36
2022-08-06T03:55:30.435Z,50.81
2022-08-06T03:58:11.750Z,50.67
2022-08-06T04:00:52.891Z,50.47
2022-08-06T04:03:27.156Z,50.98
2022-08-06T04:06:02.613Z,51.08
2022-08-06T04:08:37.915Z,51.12
2022-08-06T04:12:12.741Z,51.04
2022-08-06T04:14:07.440Z,50.60
2022-08-06T04:16:43.625Z,51.25
2022-08-06T04:19:23.276Z,50.79
2022-08-06T04:23:07.518Z,50.66
2022-08-06T04:24:54.945Z,51.23
2022-08-06T04:27:30.770Z,50.84
2022-08-06T04:30:03.796Z,51.02
2022-08-06T04:33:00.116Z,50.74
2022-08-06T04:36:07.713Z,50.80
2022-08-06T04:38:31.154Z,50.70
2022-08-06T04:41:03.361Z,50.79
2022-08-06T04:43:38.770Z,50.63
2022-08-06T04:46:27.446Z,50.79
2022-08-06T04:49:01.672Z,50.69
2022-08-06T04:52:36.743Z,50.67
2022-08-06T04:54:27.772Z,50.79
2022-08-06T04:57:21.469Z,50.79
2022-08-06T04:59:52.854Z,51.01
2022-08-06T05:02:24.291Z,50.90
2022-08-06T05:04:58.859Z,51.14
2022-08-06T05:07:38.926Z,50.83
2022-08-06T05:10:28.757Z,51.21
2022-08-06T05:13:01.162Z,50.54
2022-08-06T05:15:51.241Z,51.08
2022-08-06T05:19:19.733Z,50.59
2022-08-06T05:21:38.236Z,50.58
2022-08-06T05:24:21.780Z,51.15
2022-08-06T05:27:13.183Z,51.08
2022-08-06T05:29:49.450Z,50.68
2022-08-06T05:32:24.995Z,50.93
2022-08-06T05:34:56.897Z,50.80
2022-08-06T05:38:01.322Z,50.25
2022-08-06T05:40:20.496Z,50.54
2022-08-06T05:43:05.454Z,50.15
2022-08-06T05:45:40.231Z,50.83
2022-08-06T05:48:13.012Z,50.06
2022-08-06T05:50:51.530Z,50.42
2022-08-06T05:54:04.852Z,50.57
2022-08-06T05:56:38.885Z,50.22
2022-08-06T05:59:37.461Z,50.16
2022-08-06T06:02:12.745Z,49.92
2022-08-06T06:06:03.465Z,50.54
2022-08-06T06:08:07.860Z,49.81
2022-08-06T06:10:36.263Z,50.36
2022-08-06T06:13:24.676Z,50.32
2022-08-06T06:16:21.972Z,50.46
2022-08-06T06:19:15.681Z,50.41
2022-08-06T06:22:03.362Z,49.74
2022-08-06T06:24:40.504Z,49.71
2022-08-06T06:27:35.679Z,49.61
2022-08-06T06:30:39.371Z,49.76
2022-08-06T06:33:39.459Z,49.59
2022-08-06T06:36:29.341Z,49.48
2022-08-06T06:39:12.535Z,49.83
2022-08-06T06:41:57.440Z,49.57
2022-08-06T06:45:04.608Z,49.81
2022-08-06T06:47:59.246Z,49.83
2022-08-06T06:50:37.281Z,49.19
2022-08-06T06:53:10.645Z,49.06
2022-08-06T06:55:55.977Z,49.13
2022-08-06T06:58:38.360Z,49.56
2022-08-06T07:01:28.563Z,49.50
2022-08-06T07:04:04.029Z,49.18
2022-08-06T07:06:44.195Z,49.09
2022-08-06T07:09:40.711Z,49.30
2022-08-06T07:12:20.170Z,49.15
2022-08-06T07:15:01.178Z,48.85
2022-08-06T07:17:46.244Z,48.93
2022-08-06T07:20:34.393Z,48.67
2022-08-06T07:24:06.671Z,48.54
2022-08-06T07:26:05.082Z,48.64
2022-08-06T07:28:39.567Z,49.15
2022-08-06T07:31:12.576Z,48.66
2022-08-06T07:34:01.568Z,49.04
2022-08-06T07:36:40.456Z,48.77
2022-08-06T07:39:19.494Z,48.50
2022-08-06T07:42:11.239Z,48.61
2022-08-06T07:44:57.100Z,48.56
2022-08-06T07:47:55.164Z,48.54
2022-08-06T07:50:32.119Z,48.52
2022-08-06T07:53:12.397Z,48.83
2022-08-06T07:55:45.384Z,48.05
2022-08-06T07:58:20.158Z,48.17
2022-08-06T08:00:57.846Z,47.99
2022-08-06T08:03:58.489Z,48.16
2022-08-06T08:06:39.984Z,48.10
2022-08-06T08:09:59.391Z,47.92
2022-08-06T08:12:33.809Z,48.15
2022-08-06T08:15:17.810Z,48.10
2022-08-06T08:17:57.515Z,48.08
2022-08-06T08:20:36.484Z,48.19
2022-08-06T08:23:33.337Z,48.23
2022-08-06T08:26:07.051Z,47.70
2022-08-06T08:28:53.639Z,47.91
2022-08-06T08:31:29.431Z,47.49
2022-08-06T08:34:04.497Z,47.66
2022-08-06T08:36:46.409Z,47.81
2022-08-06T08:39:24.319Z,47.93
2022-08-06T08:42:31.361Z,47.24
2022-08-06T08:45:04.989Z,47.63
2022-08-06T08:47:57.839Z,47.31
2022-08-06T08:50:38.252Z,47.90
2022-08-06T08:53:45.628Z,47.11
2022-08-06T08:57:07.018Z,47.51
2022-08-06T08:59:58.358Z,47.65
2022-08-06T09:02:00.989Z,47.62
2022-08-06T09:04:34.876Z,46.97
2022-08-06T09:07:08.295Z,47.19
2022-08-06T09:09:47.240Z,47.15
2022-08-06T09:12:44.933Z,46.98
2022-08-06T09:15:19.339Z,47.15
2022-08-06T09:18:26.661Z,47.04
2022-08-06T09:20:46.119Z,47.19
2022-08-06T09:23:19.808Z,46.62
2022-08-06T09:25:52.785Z,47.03
2022-08-06T09:28:50.734Z,46.64
2022-08-06T09:31:43.890Z,46.59
2022-08-06T09:34:30.442Z,46.74
2022-08-06T09:37:06.791Z,46.70
2022-08-06T09:39:59.947Z,46.47
2022-08-06T09:42:42.998Z,47.05
2022-08-06T09:45:25.364Z,46.64
2022-08-06T09:48:17.541Z,46.49
2022-08-06T09:50:54.019Z,46.40
2022-08-06T09:53:25.422Z,46.52
2022-08-06T09:56:00.402Z,46.28
2022-08-06T09:58:39.417Z,46.70
2022-08-06T10:01:23.364Z,46.32
2022-08-06T10:04:05.729Z,46.60
2022-08-06T10:06:57.166Z,46.28
2022-08-06T10:09:44.178Z,46.34
2022-08-06T10:12:27.782Z,46.41
2022-08-06T10:14:59.027Z,46.72
2022-08-06T10:17:52.052Z,46.64
2022-08-06T10:20:24.604Z,46.64
2022-08-06T10:22:58.711Z,46.20
2022-08-06T10:25:38.585Z,46.20
2022-08-06T10:28:18.140Z,46.21
2022-08-06T10:30:50.938Z,46.45
2022-08-06T10:33:32.535Z,46.38
2022-08-06T10:36:11.252Z,46.33
2022-08-06T10:38:52.978Z,46.31
2022-08-06T10:41:59.342Z,46.48
2022-08-06T10:44:16.464Z,46.21
2022-08-06T10:46:51.006Z,46.49
2022-08-06T10:50:34.011Z,46.27
2022-08-06T10:52:18.030Z,46.43
2022-08-06T10:54:51.424Z,46.21
2022-08-06T10:57:36.084Z,46.17
2022-08-06T11:00:12.512Z,46.33
2022-08-06T11:03:13.677Z,46.35
2022-08-06T11:05:55.075Z,46.03
2022-08-06T11:08:58.993Z,46.15
2022-08-06T11:12:14.635Z,46.14
2022-08-06T11:14:49.006Z,46.14
2022-08-06T11:17:21.624Z,45.85
2022-08-06T11:19:57.690Z,46.10
2022-08-06T11:22:53.754Z,46.10
2022-08-06T11:25:43.696Z,45.64
2022-08-06T11:28:15.966Z,45.98
2022-08-06T11:30:50.151Z,45.63
2022-08-06T11:33:25.605Z,45.90
2022-08-06T11:35:59.441Z,46.19
2022-08-06T11:56:28.236Z,45.78
2022-08-06T11:59:17.492Z,46.11
2022-08-06T12:01:52.610Z,46.18
2022-08-06T12:04:46.114Z,46.10
2022-08-06T12:07:33.253Z,45.74
2022-08-06T12:10:29.234Z,46.06
2022-08-06T12:13:03.074Z,45.76
2022-08-06T12:16:00.224Z,46.05
2022-08-06T12:18:42.425Z,45.48
2022-08-06T12:21:15.068Z,45.46
2022-08-06T12:23:56.400Z,45.88
2022-08-06T12:26:36.226Z,45.56
2022-08-06T12:29:41.733Z,45.68
2022-08-06T12:32:28.422Z,45.94
2022-08-06T12:35:03.976Z,45.90
2022-08-06T12:37:41.101Z,45.65
2022-08-06T12:40:28.599Z,45.77
2022-08-06T12:43:15.639Z,45.69
2022-08-06T12:46:07.177Z,45.92
2022-08-06T12:48:40.858Z,45.69
2022-08-06T12:51:18.678Z,45.64
2022-08-06T12:53:55.136Z,45.43
2022-08-06T12:56:30.782Z,45.73
2022-08-06T12:59:06.447Z,46.07
2022-08-06T13:02:08.176Z,45.80
2022-08-06T13:04:42.561Z,45.53
2022-08-06T13:07:16.485Z,46.10
2022-08-06T13:14:02.105Z,45.96
2022-08-06T13:15:48.038Z,46.08
2022-08-06T13:18:41.775Z,46.02
2022-08-06T13:21:33.743Z,46.01
2022-08-06T13:24:16.095Z,45.89
2022-08-06T13:26:58.592Z,45.98
2022-08-06T13:30:33.282Z,45.88
2022-08-06T13:32:33.963Z,46.30
2022-08-06T13:35:17.051Z,46.21
2022-08-06T13:37:55.564Z,46.06
2022-08-06T13:40:57.362Z,46.08
2022-08-06T13:43:45.102Z,45.99
2022-08-06T13:46:29.313Z,46.21
2022-08-06T13:49:14.882Z,46.24
2022-08-06T13:51:49.119Z,46.09
2022-08-06T13:54:27.736Z,46.53
2022-08-06T13:57:01.665Z,46.27
2022-08-06T13:59:40.136Z,46.44
2022-08-06T14:02:12.893Z,46.08
2022-08-06T14:04:49.783Z,46.75
2022-08-06T14:07:23.781Z,45.98
2022-08-06T14:10:08.969Z,46.33
2022-08-06T14:12:43.502Z,46.58
2022-08-06T14:15:15.513Z,46.18
2022-08-06T14:17:46.292Z,46.71
2022-08-06T14:20:23.889Z,46.67
2022-08-06T14:22:58.214Z,46.21
2022-08-06T14:25:59.952Z,46.20
2022-08-06T14:28:22.560Z,46.72
2022-08-06T14:30:55.803Z,46.74
2022-08-06T14:33:36.841Z,46.37
2022-08-06T14:36:09.952Z,46.47
2022-08-06T14:38:43.318Z,46.72
2022-08-06T14:41:50.710Z,46.70
2022-08-06T14:44:38.696Z,46.88
2022-08-06T14:47:19.887Z,46.67
2022-08-06T14:50:05.834Z,46.96
2022-08-06T14:52:36.617Z,46.58
2022-08-06T14:55:11.306Z,46.62
2022-08-06T14:58:04.579Z,46.68
2022-08-06T15:00:38.062Z,47.01
2022-08-06T15:03:13.798Z,46.62
2022-08-06T15:06:04.766Z,46.98
2022-08-06T15:08:37.528Z,46.92
2022-08-06T15:11:21.211Z,47.40
2022-08-06T15:13:53.844Z,47.10
2022-08-06T15:16:47.929Z,47.03
2022-08-06T15:19:20.507Z,46.74
2022-08-06T15:22:01.909Z,46.93
2022-08-06T15:24:36.064Z,46.75
2022-08-06T15:27:29.613Z,46.88
2022-08-06T15:30:04.610Z,47.40
2022-08-06T15:32:36.242Z,46.93
2022-08-06T15:35:07.934Z,47.15
2022-08-06T15:37:52.773Z,46.74
2022-08-06T15:40:30.086Z,47.21
2022-08-06T15:43:06.412Z,46.76
2022-08-06T15:45:51.408Z,47.09
2022-08-06T15:48:28.258Z,46.98
2022-08-06T15:51:29.956Z,47.06
2022-08-06T15:53:54.086Z,46.87
2022-08-06T15:56:39.233Z,47.10
2022-08-06T15:59:52.412Z,47.06
2022-08-06T16:02:31.316Z,47.28
2022-08-06T16:05:09.479Z,47.68
2022-08-06T16:08:34.236Z,47.56
2022-08-06T16:11:10.632Z,47.35
2022-08-06T16:13:54.129Z,47.71
2022-08-06T16:16:32.394Z,47.67
2022-08-06T16:19:20.850Z,47.29
2022-08-06T16:22:00.037Z,47.30
2022-08-06T16:24:49.425Z,47.66
2022-08-06T16:27:37.695Z,47.46
2022-08-06T16:30:41.594Z,47.64
2022-08-06T16:33:54.730Z,47.32
2022-08-06T16:36:32.499Z,47.12
2022-08-06T16:46:19.473Z,47.51
2022-08-06T16:49:07.038Z,47.88
2022-08-06T16:52:42.825Z,47.42
2022-08-06T16:55:01.735Z,47.35
2022-08-06T16:57:50.142Z,47.35
2022-08-06T17:02:15.462Z,47.62
2022-08-06T17:04:37.331Z,47.48
2022-08-06T17:07:42.007Z,48.02
2022-08-06T17:10:35.415Z,48.01
2022-08-06T17:13:39.440Z,47.71
2022-08-06T17:16:29.512Z,48.17
2022-08-06T17:22:40.854Z,48.04
2022-08-06T17:26:01.024Z,47.82
2022-08-06T17:29:15.342Z,48.01
2022-08-06T17:36:51.954Z,48.10
2022-08-06T17:40:08.779Z,47.79
2022-08-06T17:43:57.044Z,48.30
2022-08-06T17:46:50.684Z,47.90
2022-08-06T17:49:59.604Z,48.15
2022-08-06T17:52:40.521Z,47.67
2022-08-06T17:55:37.189Z,47.94
2022-08-06T17:58:53.273Z,47.81
2022-08-06T18:01:50.440Z,48.10
2022-08-06T18:04:59.043Z,47.40
2022-08-06T18:08:35.450Z,48.23
2022-08-06T18:11:16.260Z,47.55
2022-08-06T18:17:59.244Z,47.88
2022-08-06T18:20:38.490Z,47.45
2022-08-06T18:23:20.542Z,47.81
2022-08-06T18:25:59.840Z,47.25
2022-08-06T18:28:49.764Z,47.85
2022-08-06T18:31:22.926Z,47.62
2022-08-06T18:33:57.583Z,47.35
2022-08-06T18:36:33.800Z,47.26
2022-08-06T18:39:13.283Z,47.14
2022-08-06T18:41:56.751Z,47.63
2022-08-06T18:44:57.043Z,47.05
2022-08-06T18:47:33.345Z,47.21
2022-08-06T18:50:13.042Z,47.87
2022-08-06T18:52:52.975Z,47.17
2022-08-06T18:55:53.916Z,47.44
2022-08-06T18:58:28.429Z,47.49
2022-08-06T19:01:20.927Z,47.54
2022-08-06T19:03:57.962Z,47.91
2022-08-06T19:06:37.242Z,47.21
2022-08-06T19:09:39.304Z,47.34
2022-08-06T19:12:25.830Z,47.71
2022-08-06T19:15:19.681Z,47.29
2022-08-06T19:32:38.805Z,47.67
2022-08-06T19:36:07.322Z,47.62
2022-08-06T19:46:30.575Z,47.43
2022-08-06T19:48:54.496Z,47.84
2022-08-06T19:52:03.417Z,47.90
2022-08-06T19:54:26.319Z,47.88
2022-08-06T19:57:08.640Z,47.62
2022-08-06T20:00:54.228Z,47.11
2022-08-06T20:06:20.121Z,47.11
2022-08-06T20:08:31.729Z,46.75
2022-08-06T20:11:09.485Z,46.61
2022-08-06T20:13:57.691Z,47.04
2022-08-06T20:16:28.717Z,46.79
2022-08-06T20:19:16.441Z,46.73
2022-08-06T20:21:52.099Z,46.74
2022-08-06T20:24:27.578Z,46.71
2022-08-06T20:27:01.058Z,47.28
2022-08-06T20:30:05.832Z,47.34
2022-08-06T20:32:44.735Z,47.00
2022-08-06T20:35:30.717Z,46.73
2022-08-06T20:38:07.427Z,46.73
2022-08-06T20:41:56.669Z,46.80
2022-08-06T20:44:06.879Z,47.18
2022-08-06T20:46:28.613Z,47.29
2022-08-06T20:49:29.548Z,47.41
2022-08-06T20:52:19.158Z,46.96
2022-08-06T20:54:53.163Z,46.90
2022-08-06T20:57:28.484Z,46.91
2022-08-06T21:00:01.831Z,47.13
2022-08-06T21:02:34.868Z,47.07
2022-08-06T21:05:19.354Z,47.41
2022-08-06T21:08:03.531Z,47.24
2022-08-06T21:10:38.213Z,46.96
2022-08-06T21:13:12.114Z,47.10
2022-08-06T21:16:13.410Z,46.86
2022-08-06T21:18:49.766Z,46.76
2022-08-06T21:21:24.971Z,46.96
2022-08-06T21:24:03.086Z,46.76
2022-08-06T21:26:37.669Z,47.37
2022-08-06T21:30:09.989Z,47.23
2022-08-06T21:32:08.549Z,47.13
2022-08-06T21:34:45.619Z,47.54
2022-08-06T21:37:29.316Z,47.50
2022-08-06T21:40:29.059Z,46.83
2022-08-06T21:43:05.237Z,47.47
2022-08-06T21:45:58.497Z,47.01
2022-08-06T21:48:36.000Z,47.25
2022-08-06T21:51:14.235Z,47.69
2022-08-06T21:53:53.086Z,47.02
2022-08-06T21:56:44.813Z,46.98
2022-08-06T21:59:16.480Z,47.17
2022-08-06T22:02:10.529Z,47.64
2022-08-06T22:04:51.933Z,47.60
2022-08-06T22:08:04.926Z,47.11
2022-08-06T22:10:31.746Z,47.19
2022-08-06T22:13:15.538Z,47.37
2022-08-06T22:15:55.674Z,47.42
2022-08-06T22:18:29.253Z,47.48
2022-08-06T22:21:01.756Z,47.28
2022-08-06T22:23:34.686Z,47.72
2022-08-06T22:26:07.051Z,47.78
2022-08-06T22:28:41.269Z,47.24
2022-08-06T22:31:14.713Z,47.56
2022-08-06T22:34:01.374Z,47.42
2022-08-06T22:36:35.859Z,47.15
2022-08-06T22:39:10.225Z,47.63
2022-08-06T22:42:06.462Z,47.17
2022-08-06T22:44:57.469Z,47.56
2022-08-06T22:47:33.373Z,47.41
2022-08-06T22:50:11.332Z,47.40
2022-08-06T22:53:02.996Z,47.57
2022-08-06T22:55:34.858Z,46.94
2022-08-06T22:59:04.745Z,47.08
2022-08-06T23:01:00.768Z,47.15
2022-08-06T23:03:40.257Z,47.66
2022-08-06T23:06:13.352Z,47.50
2022-08-06T23:08:52.578Z,47.52
2022-08-06T23:11:59.096Z,47.11
2022-08-06T23:14:46.893Z,47.43
2022-08-06T23:17:21.810Z,47.84
2022-08-06T23:19:56.437Z,47.26
2022-08-06T23:22:29.896Z,47.94
2022-08-06T23:26:01.662Z,48.03
2022-08-06T23:27:52.349Z,47.74
2022-08-06T23:30:26.285Z,47.87
2022-08-06T23:32:58.984Z,47.79
2022-08-06T23:35:36.229Z,47.92
2022-08-06T23:38:33.284Z,47.42
2022-08-06T23:41:00.873Z,47.67
2022-08-06T23:43:34.791Z,48.13
2022-08-06T23:46:07.107Z,47.85
2022-08-06T23:48:40.333Z,48.17
2022-08-06T23:52:01.467Z,47.77
2022-08-06T23:54:15.977Z,48.00
2022-08-06T23:56:58.793Z,48.12
2022-08-06T23:59:44.323Z,47.78
